createdAt,value
2019-05-05T00:00:41.155Z,2.30
2019-05-05T00:03:14.849Z,2.50
2019-05-05T00:05:46.006Z,2.40
2019-05-05T00:08:15.735Z,2.30
2019-05-05T00:11:05.092Z,2.20
2019-05-05T00:13:35.802Z,2.30
2019-05-05T00:16:16.047Z,2.20
2019-05-05T00:18:45.799Z,1.90
2019-05-05T00:21:15.275Z,1.90
2019-05-05T00:23:45.167Z,1.90
2019-05-05T00:26:15.187Z,2.00
2019-05-05T00:28:44.923Z,1.80
2019-05-05T00:31:15.025Z,1.70
2019-05-05T00:33:44.989Z,1.80
2019-05-05T00:36:14.643Z,1.80
2019-05-05T00:38:44.607Z,1.80
2019-05-05T00:41:14.866Z,1.80
2019-05-05T00:43:45.206Z,1.80
2019-05-05T00:46:19.276Z,1.70
2019-05-05T00:48:48.750Z,1.70
2019-05-05T00:51:18.211Z,1.80
2019-05-05T00:53:47.707Z,1.80
2019-05-05T00:56:17.158Z,1.80
2019-05-05T00:58:48.294Z,1.70
2019-05-05T01:01:19.634Z,1.70
2019-05-05T01:03:49.314Z,1.80
2019-05-05T01:06:20.407Z,1.80
2019-05-05T01:08:50.086Z,1.80
2019-05-05T01:11:19.613Z,1.80
2019-05-05T01:13:49.069Z,1.80
2019-05-05T01:16:18.528Z,1.80
2019-05-05T01:18:47.986Z,1.80
2019-05-05T01:21:17.444Z,1.70
2019-05-05T01:23:46.891Z,1.60
2019-05-05T01:26:16.354Z,1.50
2019-05-05T01:28:45.806Z,1.60
2019-05-05T01:31:17.866Z,1.60
2019-05-05T01:33:54.097Z,1.70
2019-05-05T01:36:24.224Z,1.70
2019-05-05T01:39:11.675Z,1.60
2019-05-05T01:41:42.843Z,1.70
2019-05-05T01:44:12.299Z,1.70
2019-05-05T01:46:41.759Z,1.80
2019-05-05T01:49:11.211Z,1.80
2019-05-05T01:51:40.662Z,1.80
2019-05-05T01:54:10.121Z,1.80
2019-05-05T01:56:39.646Z,1.90
2019-05-05T01:59:09.439Z,1.80
2019-05-05T02:01:38.910Z,1.80
2019-05-05T02:04:08.431Z,1.90
2019-05-05T02:06:37.962Z,2.00
2019-05-05T02:09:07.590Z,2.00
2019-05-05T02:11:38.679Z,1.90
2019-05-05T02:14:08.138Z,1.80
2019-05-05T02:16:37.615Z,1.80
2019-05-05T02:19:07.130Z,1.90
2019-05-05T02:21:36.679Z,1.90
2019-05-05T02:24:06.370Z,2.00
2019-05-05T02:26:36.287Z,2.00
2019-05-05T02:29:10.062Z,2.00
2019-05-05T02:31:58.355Z,2.10
2019-05-05T02:34:29.452Z,2.00
2019-05-05T02:36:58.934Z,2.10
2019-05-05T02:39:28.521Z,1.90
2019-05-05T02:41:58.431Z,1.90
2019-05-05T02:44:29.725Z,1.80
2019-05-05T02:47:04.801Z,1.80
2019-05-05T02:49:35.599Z,1.80
2019-05-05T02:52:05.902Z,1.80
2019-05-05T02:54:36.990Z,1.80
2019-05-05T02:57:09.606Z,1.80
2019-05-05T02:59:40.947Z,1.70
2019-05-05T03:02:14.359Z,1.70
2019-05-05T03:04:44.719Z,1.70
2019-05-05T03:07:17.639Z,1.70
2019-05-05T03:09:49.938Z,1.60
2019-05-05T03:12:21.134Z,1.70
2019-05-05T03:14:53.647Z,1.70
2019-05-05T03:17:24.502Z,1.70
2019-05-05T03:19:54.599Z,1.50
2019-05-05T03:22:25.720Z,1.50
2019-05-05T03:24:55.617Z,1.50
2019-05-05T03:27:25.163Z,1.50
2019-05-05T03:29:54.866Z,1.50
2019-05-05T03:32:25.654Z,1.40
2019-05-05T03:34:55.323Z,1.20
2019-05-05T03:37:25.105Z,1.20
2019-05-05T03:39:57.608Z,1.30
2019-05-05T03:42:33.863Z,1.30
2019-05-05T03:45:05.407Z,1.40
2019-05-05T03:47:35.647Z,1.20
2019-05-05T03:50:07.117Z,1.20
2019-05-05T03:52:37.631Z,1.20
2019-05-05T03:55:08.995Z,1.20
2019-05-05T03:57:39.104Z,1.30
2019-05-05T04:00:09.001Z,1.40
2019-05-05T04:02:44.407Z,1.30
2019-05-05T04:05:18.843Z,1.50
2019-05-05T04:07:48.398Z,1.50
2019-05-05T04:10:18.992Z,1.50
2019-05-05T04:12:49.679Z,1.60
2019-05-05T04:15:19.127Z,1.70
2019-05-05T04:17:53.648Z,1.80
2019-05-05T04:20:25.413Z,1.60
2019-05-05T04:22:57.974Z,1.60
2019-05-05T04:25:25.963Z,1.80
2019-05-05T04:27:55.445Z,1.90
2019-05-05T04:30:24.908Z,1.90
2019-05-05T04:32:54.710Z,2.00
2019-05-05T04:35:24.793Z,2.00
2019-05-05T04:37:54.534Z,2.10
2019-05-05T04:40:24.203Z,2.10
2019-05-05T04:42:54.838Z,2.20
2019-05-05T04:45:24.980Z,2.20
2019-05-05T04:47:58.766Z,2.30
2019-05-05T04:50:34.551Z,2.30
2019-05-05T04:53:08.285Z,2.30
2019-05-05T04:55:37.740Z,2.30
2019-05-05T04:58:07.190Z,2.50
2019-05-05T05:00:36.771Z,2.60
2019-05-05T05:03:13.983Z,2.60
2019-05-05T05:05:54.313Z,2.60
2019-05-05T05:08:24.897Z,2.60
2019-05-05T05:10:54.411Z,2.60
2019-05-05T05:13:24.628Z,2.60
2019-05-05T05:15:54.704Z,2.50
2019-05-05T05:18:24.297Z,2.40
2019-05-05T05:20:54.983Z,2.50
2019-05-05T05:23:24.768Z,2.60
2019-05-05T05:25:55.007Z,2.70
2019-05-05T05:28:24.460Z,2.70
2019-05-05T05:30:54.606Z,2.80
2019-05-05T05:33:24.181Z,2.80
2019-05-05T05:35:54.623Z,2.80
2019-05-05T05:38:24.866Z,2.90
2019-05-05T05:40:55.973Z,2.90
2019-05-05T05:43:27.066Z,3.00
2019-05-05T05:46:00.915Z,3.10
2019-05-05T05:48:34.071Z,3.10
2019-05-05T05:51:04.726Z,3.30
2019-05-05T05:53:34.911Z,3.40
2019-05-05T05:56:04.610Z,3.40
2019-05-05T05:58:34.075Z,3.40
2019-05-05T06:01:04.300Z,3.40
2019-05-05T06:03:34.129Z,3.50
2019-05-05T06:06:04.766Z,3.70
2019-05-05T06:08:35.540Z,3.60
2019-05-05T06:11:04.995Z,3.60
2019-05-05T06:13:34.453Z,3.70
2019-05-05T06:16:04.456Z,3.80
2019-05-05T06:18:34.618Z,3.80
2019-05-05T06:21:04.668Z,3.70
2019-05-05T06:23:34.515Z,3.70
2019-05-05T06:26:06.827Z,3.70
2019-05-05T06:28:36.176Z,3.70
2019-05-05T06:31:05.667Z,3.80
2019-05-05T06:33:35.120Z,4.00
2019-05-05T06:36:04.665Z,4.10
2019-05-05T06:38:34.741Z,4.10
2019-05-05T06:41:21.097Z,4.20
2019-05-05T06:43:57.656Z,4.20
2019-05-05T06:46:28.935Z,4.40
2019-05-05T06:48:59.365Z,4.50
2019-05-05T06:51:28.940Z,4.70
2019-05-05T06:53:58.653Z,4.60
2019-05-05T06:56:28.132Z,4.50
2019-05-05T06:58:57.579Z,4.60
2019-05-05T07:01:27.094Z,4.70
2019-05-05T07:03:56.551Z,4.80
2019-05-05T07:06:26.100Z,4.70
2019-05-05T07:08:55.727Z,4.70
2019-05-05T07:11:25.229Z,4.70
2019-05-05T07:13:54.658Z,4.80
2019-05-05T07:16:24.418Z,4.80
2019-05-05T07:18:54.101Z,4.90
2019-05-05T07:21:25.127Z,5.00
2019-05-05T07:23:54.575Z,5.10
2019-05-05T07:26:24.032Z,5.00
2019-05-05T07:28:54.156Z,5.00
2019-05-05T07:31:23.967Z,5.20
2019-05-05T07:33:54.429Z,5.30
2019-05-05T07:36:44.525Z,5.40
2019-05-05T07:39:14.426Z,5.40
2019-05-05T07:41:44.711Z,5.40
2019-05-05T07:44:25.709Z,5.60
2019-05-05T07:46:45.367Z,5.50
2019-05-05T07:49:14.824Z,5.70
2019-05-05T07:51:44.483Z,5.70
2019-05-05T07:54:14.708Z,5.60
2019-05-05T07:56:44.474Z,5.80
2019-05-05T07:59:15.616Z,5.80
2019-05-05T08:01:46.753Z,5.90
2019-05-05T08:04:16.323Z,6.00
2019-05-05T08:06:45.784Z,5.90
2019-05-05T08:09:15.248Z,6.00
2019-05-05T08:11:44.698Z,6.20
2019-05-05T08:14:14.688Z,6.10
2019-05-05T08:16:48.711Z,6.20
2019-05-05T08:19:38.154Z,6.40
2019-05-05T08:22:07.677Z,6.70
2019-05-05T08:24:55.272Z,6.80
2019-05-05T08:27:44.743Z,6.70
2019-05-05T08:30:16.976Z,6.60
2019-05-05T08:32:48.113Z,6.50
2019-05-05T08:35:17.587Z,6.60
2019-05-05T08:37:47.048Z,6.70
2019-05-05T08:40:16.640Z,6.70
2019-05-05T08:42:46.099Z,6.50
2019-05-05T08:45:15.800Z,6.40
2019-05-05T08:47:45.246Z,6.50
2019-05-05T08:50:14.958Z,6.60
2019-05-05T08:52:44.532Z,6.70
2019-05-05T08:55:14.208Z,7.00
2019-05-05T08:57:44.642Z,7.20
2019-05-05T09:00:14.747Z,7.20
2019-05-05T09:02:44.204Z,7.30
2019-05-05T09:05:14.507Z,7.30
2019-05-05T09:07:44.220Z,7.30
2019-05-05T09:10:14.306Z,7.30
2019-05-05T09:12:43.799Z,7.30
2019-05-05T09:15:14.194Z,7.50
2019-05-05T09:17:44.134Z,7.70
2019-05-05T09:20:14.035Z,7.90
2019-05-05T09:22:44.601Z,8.10
2019-05-05T09:25:19.018Z,8.20
2019-05-05T09:27:50.107Z,7.90
2019-05-05T09:30:24.513Z,7.80
2019-05-05T09:32:54.200Z,7.90
2019-05-05T09:35:24.097Z,7.90
2019-05-05T09:37:53.862Z,7.90
2019-05-05T09:40:35.100Z,7.70
2019-05-05T09:43:05.596Z,8.00
2019-05-05T09:45:37.060Z,8.30
2019-05-05T09:48:06.858Z,8.50
2019-05-05T09:50:37.278Z,8.40
2019-05-05T09:53:07.820Z,8.10
2019-05-05T09:55:37.280Z,7.80
2019-05-05T09:58:06.934Z,7.70
2019-05-05T10:00:38.032Z,7.80
2019-05-05T10:03:07.476Z,8.20
2019-05-05T10:05:36.967Z,8.70
2019-05-05T10:08:06.484Z,9.10
2019-05-05T10:10:35.951Z,9.20
2019-05-05T10:13:05.408Z,8.90
2019-05-05T10:15:34.882Z,8.60
2019-05-05T10:18:04.404Z,8.30
2019-05-05T10:20:34.367Z,8.40
2019-05-05T10:23:03.931Z,8.70
2019-05-05T10:25:37.723Z,8.60
2019-05-05T10:28:07.181Z,8.80
2019-05-05T10:30:36.618Z,8.90
2019-05-05T10:33:06.080Z,9.20
2019-05-05T10:35:35.535Z,9.40
2019-05-05T10:38:05.059Z,9.20
2019-05-05T10:40:35.392Z,8.90
2019-05-05T10:43:08.996Z,8.70
2019-05-05T10:45:38.464Z,9.20
2019-05-05T10:48:08.060Z,9.60
2019-05-05T10:50:37.517Z,9.50
2019-05-05T10:53:07.060Z,9.60
2019-05-05T10:55:36.506Z,9.70
2019-05-05T10:58:05.963Z,9.70
2019-05-05T11:00:41.472Z,9.70
2019-05-05T11:03:11.351Z,9.90
2019-05-05T11:05:40.930Z,9.70
2019-05-05T11:08:10.533Z,9.60
2019-05-05T11:10:39.976Z,9.60
2019-05-05T11:13:09.509Z,9.50
2019-05-05T11:15:39.095Z,9.50
2019-05-05T11:18:08.643Z,9.40
2019-05-05T11:20:38.092Z,9.50
2019-05-05T11:23:07.567Z,9.70
2019-05-05T11:25:37.025Z,9.60
2019-05-05T11:28:08.110Z,9.70
2019-05-05T11:30:40.071Z,9.70
2019-05-05T11:33:11.193Z,10.10
2019-05-05T11:35:44.319Z,11.00
2019-05-05T11:38:14.356Z,11.50
2019-05-05T11:40:44.000Z,11.60
2019-05-05T11:43:14.216Z,12.00
2019-05-05T11:45:43.953Z,12.00
2019-05-05T11:48:14.820Z,12.00
2019-05-05T11:50:44.365Z,13.00
2019-05-05T11:53:14.549Z,13.00
2019-05-05T11:55:45.183Z,12.50
2019-05-05T11:58:14.649Z,12.10
2019-05-05T12:00:44.171Z,11.80
2019-05-05T12:03:14.390Z,11.50
2019-05-05T12:05:44.403Z,11.40
2019-05-05T12:08:14.686Z,11.10
2019-05-05T12:10:45.995Z,10.90
2019-05-05T12:13:15.512Z,10.30
2019-05-05T12:15:46.600Z,10.30
2019-05-05T12:18:16.088Z,10.70
2019-05-05T12:20:46.514Z,11.40
2019-05-05T12:23:16.064Z,11.90
2019-05-05T12:25:47.165Z,12.20
2019-05-05T12:28:24.180Z,12.50
2019-05-05T12:31:03.639Z,12.70
2019-05-05T12:33:33.648Z,11.60
2019-05-05T12:36:04.409Z,11.40
2019-05-05T12:38:34.752Z,10.90
2019-05-05T12:41:04.523Z,10.50
2019-05-05T12:43:34.169Z,10.50
2019-05-05T12:46:16.043Z,10.30
2019-05-05T12:48:47.540Z,10.20
2019-05-05T12:51:17.969Z,10.10
2019-05-05T12:53:47.435Z,9.70
2019-05-05T12:56:16.890Z,9.50
2019-05-05T12:58:46.363Z,9.40
2019-05-05T13:01:29.472Z,9.30
2019-05-05T13:03:58.971Z,9.20
2019-05-05T13:06:28.420Z,9.40
2019-05-05T13:08:57.892Z,9.40
2019-05-05T13:11:27.343Z,9.40
2019-05-05T13:13:56.816Z,9.40
2019-05-05T13:16:26.343Z,9.20
2019-05-05T13:18:55.806Z,9.30
2019-05-05T13:21:45.091Z,9.40
2019-05-05T13:24:16.245Z,9.30
2019-05-05T13:26:47.336Z,9.40
2019-05-05T13:29:16.872Z,9.60
2019-05-05T13:31:46.391Z,9.70
2019-05-05T13:34:15.864Z,10.00
2019-05-05T13:36:45.332Z,10.40
2019-05-05T13:39:14.787Z,11.00
2019-05-05T13:41:44.888Z,11.40
2019-05-05T13:44:17.203Z,11.10
2019-05-05T13:46:46.663Z,11.00
2019-05-05T13:49:17.846Z,10.90
2019-05-05T13:51:47.310Z,10.80
2019-05-05T13:54:17.028Z,10.60
2019-05-05T13:56:46.491Z,10.60
2019-05-05T13:59:16.034Z,10.50
2019-05-05T14:01:45.572Z,10.40
2019-05-05T14:04:15.148Z,10.30
2019-05-05T14:06:46.315Z,10.00
2019-05-05T14:09:15.864Z,10.10
2019-05-05T14:11:45.495Z,10.10
2019-05-05T14:14:15.047Z,10.10
2019-05-05T14:16:44.809Z,10.20
2019-05-05T14:19:14.775Z,10.00
2019-05-05T14:21:44.747Z,10.00
2019-05-05T14:24:15.882Z,10.00
2019-05-05T14:26:45.339Z,10.00
2019-05-05T14:29:16.440Z,9.90
2019-05-05T14:31:45.887Z,9.80
2019-05-05T14:34:16.987Z,9.90
2019-05-05T14:36:48.075Z,9.90
2019-05-05T14:39:19.005Z,9.80
2019-05-05T14:41:48.520Z,9.70
2019-05-05T14:44:17.983Z,9.60
2019-05-05T14:46:47.436Z,9.60
2019-05-05T14:49:16.889Z,9.70
2019-05-05T14:51:46.347Z,9.90
2019-05-05T14:54:15.799Z,9.90
2019-05-05T14:56:45.268Z,10.00
2019-05-05T14:59:14.726Z,10.00
2019-05-05T15:01:45.152Z,10.00
2019-05-05T15:04:16.254Z,10.30
2019-05-05T15:06:50.136Z,10.20
2019-05-05T15:09:37.289Z,10.20
2019-05-05T15:12:08.393Z,10.10
2019-05-05T15:14:37.872Z,10.10
2019-05-05T15:17:07.339Z,9.90
2019-05-05T15:19:36.787Z,9.90
2019-05-05T15:22:06.498Z,10.00
2019-05-05T15:24:35.996Z,10.40
2019-05-05T15:27:05.527Z,10.50
2019-05-05T15:29:35.057Z,10.50
2019-05-05T15:32:04.614Z,10.30
2019-05-05T15:34:34.422Z,10.30
2019-05-05T15:37:04.670Z,10.30
2019-05-05T15:39:34.123Z,10.30
2019-05-05T15:42:04.657Z,10.20
2019-05-05T15:44:35.268Z,10.30
2019-05-05T15:47:04.821Z,10.10
2019-05-05T15:49:34.280Z,10.10
2019-05-05T15:52:04.566Z,9.90
2019-05-05T15:54:34.868Z,9.80
2019-05-05T15:57:07.871Z,10.00
2019-05-05T15:59:35.520Z,10.10
2019-05-05T16:02:05.962Z,10.10
2019-05-05T16:04:35.492Z,10.00
2019-05-05T16:07:05.108Z,10.00
2019-05-05T16:09:34.568Z,10.10
2019-05-05T16:12:04.317Z,10.10
2019-05-05T16:14:35.417Z,10.10
2019-05-05T16:17:06.647Z,10.20
2019-05-05T16:19:56.359Z,10.00
2019-05-05T16:22:27.447Z,9.80
2019-05-05T16:25:04.513Z,9.90
2019-05-05T16:27:33.972Z,9.90
2019-05-05T16:30:05.866Z,9.80
2019-05-05T16:32:36.290Z,9.80
2019-05-05T16:35:07.878Z,9.70
2019-05-05T16:37:38.423Z,9.60
2019-05-05T16:40:10.199Z,9.60
2019-05-05T16:42:40.656Z,9.60
2019-05-05T16:45:10.440Z,9.70
2019-05-05T16:47:39.920Z,9.60
2019-05-05T16:50:10.612Z,9.60
2019-05-05T16:52:46.102Z,9.50
2019-05-05T16:55:17.248Z,9.50
2019-05-05T16:57:46.723Z,9.50
2019-05-05T17:00:16.676Z,9.50
2019-05-05T17:02:46.152Z,9.50
2019-05-05T17:05:15.834Z,9.40
2019-05-05T17:07:45.312Z,9.50
2019-05-05T17:10:15.099Z,9.50
2019-05-05T17:12:44.575Z,9.50
2019-05-05T17:15:35.434Z,9.50
2019-05-05T17:18:12.630Z,9.60
2019-05-05T17:20:55.313Z,9.60
2019-05-05T17:23:24.771Z,9.70
2019-05-05T17:25:54.296Z,9.50
2019-05-05T17:28:23.893Z,9.40
2019-05-05T17:30:54.316Z,9.40
2019-05-05T17:33:24.195Z,9.50
2019-05-05T17:35:54.013Z,9.50
2019-05-05T17:38:24.401Z,9.40
2019-05-05T17:40:55.562Z,9.40
2019-05-05T17:43:34.079Z,9.30
2019-05-05T17:46:07.887Z,9.20
2019-05-05T17:48:54.144Z,9.10
2019-05-05T17:51:40.280Z,9.10
2019-05-05T17:54:29.183Z,9.00
2019-05-05T17:56:58.636Z,9.10
2019-05-05T17:59:28.107Z,9.00
2019-05-05T18:01:57.559Z,8.90
2019-05-05T18:04:27.871Z,8.90
2019-05-05T18:06:58.955Z,8.80
2019-05-05T18:09:46.644Z,8.80
2019-05-05T18:12:17.735Z,8.70
2019-05-05T18:14:48.919Z,8.70
2019-05-05T18:17:18.383Z,8.80
2019-05-05T18:19:47.869Z,8.80
2019-05-05T18:22:17.324Z,8.90
2019-05-05T18:24:46.800Z,8.90
2019-05-05T18:27:16.407Z,8.90
2019-05-05T18:29:45.881Z,8.90
2019-05-05T18:32:15.428Z,8.80
2019-05-05T18:34:44.895Z,8.80
2019-05-05T18:37:14.557Z,8.80
2019-05-05T18:39:44.054Z,8.70
2019-05-05T18:42:21.232Z,8.70
2019-05-05T18:44:58.348Z,8.70
2019-05-05T18:47:27.804Z,8.60
2019-05-05T18:49:57.254Z,8.60
2019-05-05T18:52:26.702Z,8.50
2019-05-05T18:54:56.154Z,8.50
2019-05-05T18:57:25.638Z,8.50
2019-05-05T18:59:55.148Z,8.40
2019-05-05T19:02:35.446Z,8.30
2019-05-05T19:05:17.068Z,8.30
2019-05-05T19:07:55.533Z,8.30
2019-05-05T19:10:19.391Z,8.20
2019-05-05T19:12:50.879Z,8.10
2019-05-05T19:15:20.118Z,8.00
2019-05-05T19:17:49.572Z,8.00
2019-05-05T19:20:20.689Z,8.00
2019-05-05T19:22:51.848Z,8.00
2019-05-05T19:25:21.346Z,7.90
2019-05-05T19:27:50.799Z,7.60
2019-05-05T19:30:20.338Z,7.60
2019-05-05T19:32:49.796Z,7.50
2019-05-05T19:35:19.278Z,7.40
2019-05-05T19:37:48.733Z,7.30
2019-05-05T19:40:18.410Z,7.40
2019-05-05T19:42:47.869Z,7.30
2019-05-05T19:45:17.516Z,7.20
2019-05-05T19:47:46.962Z,7.20
2019-05-05T19:50:20.859Z,7.10
2019-05-05T19:52:50.307Z,7.00
2019-05-05T19:55:19.783Z,6.80
2019-05-05T19:57:49.243Z,6.80
2019-05-05T20:00:19.967Z,6.80
2019-05-05T20:03:01.347Z,6.80
2019-05-05T20:05:20.585Z,6.80
2019-05-05T20:07:50.044Z,6.70
2019-05-05T20:10:19.598Z,6.70
2019-05-05T20:12:49.043Z,6.60
2019-05-05T20:15:23.735Z,6.50
2019-05-05T20:17:53.921Z,6.50
2019-05-05T20:20:24.069Z,6.50
2019-05-05T20:22:54.798Z,6.60
2019-05-05T20:25:24.444Z,6.40
2019-05-05T20:27:55.974Z,6.40
2019-05-05T20:30:25.217Z,6.40
2019-05-05T20:32:56.580Z,6.30
2019-05-05T20:35:30.697Z,6.10
2019-05-05T20:38:14.359Z,6.00
2019-05-05T20:40:45.455Z,6.00
2019-05-05T20:43:14.912Z,6.10
2019-05-05T20:45:44.407Z,6.10
2019-05-05T20:48:13.831Z,6.10
2019-05-05T20:50:43.910Z,6.00
2019-05-05T20:53:13.708Z,5.60
2019-05-05T20:55:44.715Z,5.60
2019-05-05T20:58:14.395Z,5.50
2019-05-05T21:00:44.346Z,5.60
2019-05-05T21:03:14.263Z,5.70
2019-05-05T21:05:44.204Z,5.80
2019-05-05T21:08:14.150Z,5.50
2019-05-05T21:10:44.224Z,5.10
2019-05-05T21:13:14.403Z,5.10
2019-05-05T21:15:45.068Z,5.00
2019-05-05T21:18:14.590Z,5.00
2019-05-05T21:20:44.041Z,4.80
2019-05-05T21:23:15.143Z,4.70
2019-05-05T21:25:57.768Z,4.70
2019-05-05T21:28:27.232Z,4.60
2019-05-05T21:30:56.727Z,4.50
2019-05-05T21:33:26.175Z,4.50
2019-05-05T21:35:55.628Z,4.50
2019-05-05T21:38:25.098Z,4.30
2019-05-05T21:40:54.655Z,4.10
2019-05-05T21:43:24.567Z,4.10
2019-05-05T21:45:54.576Z,4.00
2019-05-05T21:48:24.338Z,4.00
2019-05-05T21:50:55.443Z,4.00
2019-05-05T21:53:34.190Z,4.00
2019-05-05T21:56:24.804Z,3.90
2019-05-05T21:58:55.030Z,4.00
2019-05-05T22:01:27.407Z,3.90
2019-05-05T22:03:55.943Z,3.80
2019-05-05T22:06:25.391Z,3.70
2019-05-05T22:08:54.863Z,3.60
2019-05-05T22:11:24.443Z,3.60
2019-05-05T22:16:35.603Z,3.50
2019-05-05T22:19:06.736Z,3.60
2019-05-05T22:21:40.763Z,3.60
2019-05-05T22:24:15.939Z,3.40
2019-05-05T22:26:45.982Z,3.40
2019-05-05T22:29:17.069Z,3.40
2019-05-05T22:31:46.502Z,3.30
2019-05-05T22:34:16.121Z,3.20
2019-05-05T22:36:45.653Z,3.20
2019-05-05T22:39:16.976Z,3.10
2019-05-05T22:41:46.391Z,3.00
2019-05-05T22:44:15.863Z,3.00
2019-05-05T22:46:45.587Z,2.90
2019-05-05T22:49:16.031Z,2.90
2019-05-05T22:51:45.488Z,2.90
2019-05-05T22:54:15.200Z,2.90
2019-05-05T22:56:44.925Z,2.90
2019-05-05T22:59:14.600Z,2.80
2019-05-05T23:01:44.056Z,2.70
2019-05-05T23:04:27.199Z,2.60
2019-05-05T23:07:01.246Z,2.50
2019-05-05T23:09:30.736Z,2.50
2019-05-05T23:12:00.188Z,2.60
2019-05-05T23:14:29.943Z,2.60
2019-05-05T23:17:15.093Z,2.60
2019-05-05T23:20:04.654Z,2.50
2019-05-05T23:22:35.287Z,2.50
2019-05-05T23:25:07.844Z,2.40
2019-05-05T23:27:50.884Z,2.40
2019-05-05T23:30:23.808Z,2.20
2019-05-05T23:32:54.790Z,2.30
2019-05-05T23:35:25.571Z,2.30
2019-05-05T23:37:55.378Z,2.30
2019-05-05T23:40:26.658Z,2.20
2019-05-05T23:42:56.119Z,2.10
2019-05-05T23:45:25.596Z,2.20
2019-05-05T23:47:55.427Z,2.20
2019-05-05T23:50:24.904Z,2.20
2019-05-05T23:52:54.751Z,2.20
2019-05-05T23:55:24.932Z,2.20
2019-05-05T23:57:54.989Z,2.20
